Laax, Switzerland
Current Conditions -  °F | °C
As of 8:50 AM on Tuesday 27 Jan 2015 (Local Time) from LSZS Reporting Station
Broken Clouds Broken Clouds  
Wind Chill: 23°   Ceiling: 2700
Heat Index: 23°   Visibility: 4mi
Dew Point: 21°   Wind: 3mph
Humidity: 93%   Direction: NA
Pressure: 29.91"   Gusts: NA
Location:  46.81°N, 9.26°E
Report Text: LSZS 270750Z VRB03KT 6000 BKN027 BKN050 M05/M06 Q1013
Loading
Personal Weather Stations






























Interactive Weather Map New forecast layout! Learn more

10-Day Weather Forecast

Advertisements
Track Severe Weather on mobile